WetterOnline ( https://www.wetteronline.de )

Wetter aktuell Bonn

Aktuelles Wetter: Roleber (162m)

6-stündlich | Neueste Meldungen
Ortszeit Temperatur Wetter
Fr, 19.04. 8:00 10.9° C leicht bewölkt
Fr, 19.04. 2:00 12.3° C wolkig
Do, 18.04. 20:00 19.0° C leicht bewölkt
Do, 18.04. 14:00 20.3° C wolkenlos
Do, 18.04. 8:00 9.8° C bedeckt
Do, 18.04. 2:00 10.5° C wolkig
Mi, 17.04. 20:00 14.9° C wolkig
Mi, 17.04. 14:00 15.5° C bedeckt
Ortszeit Temperatur Wetter
Fr, 19.04. 9:00 14.4° C wolkenlos
Fr, 19.04. 8:30 12.8° C wolkenlos
Fr, 19.04. 8:20 12.8° C wolkenlos
Fr, 19.04. 8:10 12.0° C wolkenlos
Fr, 19.04. 8:00 10.9° C leicht bewölkt
Fr, 19.04. 7:50 10.9° C leicht bewölkt
Fr, 19.04. 7:30 9.9° C fast wolkenlos
Fr, 19.04. 7:00 9.1° C fast wolkenlos
Fr, 19.04. 6:30 8.4° C leicht bewölkt
Fr, 19.04. 6:00 8.9° C leicht bewölkt
Fr, 19.04. 5:30 8.0° C wolkig
Ortszeit Relative Feuchte Sichtweite
Fr, 19.04. 8:00 61% 30 km
Fr, 19.04. 2:00 55% 35 km
Do, 18.04. 20:00 36% 70 km
Do, 18.04. 14:00 42% 21 km
Do, 18.04. 8:00 68% 30 km
Do, 18.04. 2:00 61% 22 km
Mi, 17.04. 20:00 60% 27 km
Mi, 17.04. 14:00 71% 29 km
Ortszeit Relative Feuchte Sichtweite
Fr, 19.04. 9:00 51% 35 km
Fr, 19.04. 8:30 58% 40 km
Fr, 19.04. 8:20 58% -
Fr, 19.04. 8:10 59% -
Fr, 19.04. 8:00 61% 30 km
Fr, 19.04. 7:50 61% -
Fr, 19.04. 7:30 63% 30 km
Fr, 19.04. 7:00 66% 35 km
Fr, 19.04. 6:30 68% 30 km
Fr, 19.04. 6:00 66% 30 km
Fr, 19.04. 5:30 70% 30 km
Ortszeit Niederschlagsmenge Niederschlagsart
Fr, 19.04. 8:00 0.0 l/m2 in 12 Std. -
Fr, 19.04. 2:00 0.0 l/m2 in 6 Std. -
Do, 18.04. 20:00 0.0 l/m2 in 12 Std. -
Do, 18.04. 14:00 0.0 l/m2 in 6 Std. -
Do, 18.04. 8:00 0.0 l/m2 in 12 Std. -
Do, 18.04. 2:00 0.0 l/m2 in 6 Std. -
Mi, 17.04. 20:00 0.2 l/m2 in 12 Std. -
Mi, 17.04. 14:00 0.2 l/m2 in 6 Std. Regen
Ortszeit Niederschlagsmenge Niederschlagsart
Fr, 19.04. 9:00 0.0 l/m2 in 1 Std. -
Fr, 19.04. 8:30 0.0 l/m2 in 1 Std. -
Fr, 19.04. 8:20 keine Meldung -
Fr, 19.04. 8:10 keine Meldung -
Fr, 19.04. 8:00 0.0 l/m2 in 1 Std. -
Fr, 19.04. 7:50 keine Meldung -
Fr, 19.04. 7:30 0.0 l/m2 in 1 Std. -
Fr, 19.04. 7:00 0.0 l/m2 in 1 Std. -
Fr, 19.04. 6:30 0.0 l/m2 in 1 Std. -
Fr, 19.04. 6:00 0.0 l/m2 in 1 Std. -
Fr, 19.04. 5:30 0.0 l/m2 in 1 Std. -
Ortszeit Stärke Spitze Richtung
km/h Bft. km/h Grad Sektor
Fr, 19.04. 8:00 9 2 17 130° SO
Fr, 19.04. 2:00 11 2 32 100° O
Do, 18.04. 20:00 14 3 36 120° SO
Do, 18.04. 14:00 18 3 36 110° O
Do, 18.04. 8:00 13 3 19 120° SO
Do, 18.04. 2:00 7 2 18 120° SO
Mi, 17.04. 20:00 11 2 25 120° SO
Mi, 17.04. 14:00 13 3 26 160° S
Ortszeit Stärke Spitze Richtung
km/h Bft. km/h Grad Sektor
Fr, 19.04. 9:00 9 2 17 90° O
Fr, 19.04. 8:30 7 2 14 90° O
Fr, 19.04. 8:20 7 2 - 90° O
Fr, 19.04. 8:10 7 2 - 100° O
Fr, 19.04. 8:00 9 2 17 130° SO
Fr, 19.04. 7:50 9 2 - 130° SO
Fr, 19.04. 7:30 13 3 17 120° SO
Fr, 19.04. 7:00 11 2 18 110° O
Fr, 19.04. 6:30 11 2 14 120° SO
Fr, 19.04. 6:00 11 2 14 120° SO
Fr, 19.04. 5:30 7 2 11 120° SO
Ortszeit Untergrenze Bedeckung Gattung
total tief tief mittel hoch
Fr, 19.04. 8:00 7800 m 3/8 0/8 - - -
Fr, 19.04. 2:00 7800 m 8/8 0/8 - - -
Do, 18.04. 20:00 8100 m 4/8 0/8 - - -
Do, 18.04. 14:00 - 0/8 0/8 - - -
Do, 18.04. 8:00 4200 m 8/8 8/8 - - -
Do, 18.04. 2:00 3000 m 6/8 6/8 - - -
Mi, 17.04. 20:00 4500 m 5/8 5/8 - - -
Mi, 17.04. 14:00 750 m 8/8 8/8 - - -
Ortszeit Bedeckungsgrad in Achtel und Wolkenuntergrenze
Fr, 19.04. 9:00 keine Wolken
Fr, 19.04. 8:30 keine Wolken
Fr, 19.04. 8:20 keine Wolken
Fr, 19.04. 8:10 keine Wolken
Fr, 19.04. 8:00 2(7800m) 3(9000m)
Fr, 19.04. 7:50 2(7800m) 3(9000m)
Fr, 19.04. 7:30 1(9000m) 4(9000m)
Fr, 19.04. 7:00 1(9000m)
Fr, 19.04. 6:30 4(9000m)
Fr, 19.04. 6:00 3(8700m)
Fr, 19.04. 5:30 1(7200m) 7(8700m)
Ortszeit Luftdruck NN (hPa) Tendenz (hPa in 3 Std.)
Fr, 19.04. 8:00 1028 + 1,0
Fr, 19.04. 2:00 1026 + 0,7
Do, 18.04. 20:00 1023 + 0,6
Do, 18.04. 14:00 1024 - 1,1
Do, 18.04. 8:00 1025 + 0,4
Do, 18.04. 2:00 1024 + 0,7
Mi, 17.04. 20:00 1022 0,0
Mi, 17.04. 14:00 1022 + 0,3
Ortszeit Luftdruck NN (hPa) Tendenz (hPa in 3 Std.)
Fr, 19.04. 9:00 1028 + 1,1
Fr, 19.04. 8:30 1028 + 1,0
Fr, 19.04. 8:20 1028 keine Meldung
Fr, 19.04. 8:10 1028 keine Meldung
Fr, 19.04. 8:00 1028 + 1,0
Fr, 19.04. 7:50 1028 keine Meldung
Fr, 19.04. 7:30 1028 + 1,1
Fr, 19.04. 7:00 1028 + 0,8
Fr, 19.04. 6:30 1027 + 0,7
Fr, 19.04. 6:00 1027 + 0,7
Fr, 19.04. 5:30 1027 + 0,8
Ortszeit Schneehöhe (cm)
Fr, 19.04. 8:00 0
Fr, 19.04. 2:00 0
Do, 18.04. 20:00 0
Do, 18.04. 14:00 0
Do, 18.04. 8:00 0
Do, 18.04. 2:00 0
Mi, 17.04. 20:00 0
Mi, 17.04. 14:00 0
Ortszeit Schneehöhe (cm)
Fr, 19.04. 9:00 0
Fr, 19.04. 8:30 0
Fr, 19.04. 8:20 0
Fr, 19.04. 8:10 0
Fr, 19.04. 8:00 0
Fr, 19.04. 7:50 0
Fr, 19.04. 7:30 0
Fr, 19.04. 7:00 0
Fr, 19.04. 6:30 0
Fr, 19.04. 6:00 0
Fr, 19.04. 5:30 0
Link zu dieser Seite / Seite empfehlen

Das Wetter in ...